Dover Air Force Base Dover US
ICAO: KDOV
IATA: DOV
Category: Large
Scheduled Services: No

Elevation: 24 ft
TransAlt. 18000 ft.

Airport Communications:
APP:132.425
ATIS:135.05
CLNC DEL:125.55
DEP:32.3
GND:118.875
PMSV METRO:34.2
COMD POST:134.1
PTD:134.1
MILLVILLE RDO:111.4
TWR:126.35

KDOV Zoom In..

Runways:

(A) RW 01 length 9602 ft width 200 ft
ILS 109.95 / hdg 13

(B) RW 14 length 12903 ft width 150 ft
---- / hdg 136

(C) RW 19 length 9602 ft width 200 ft
ILS 111.90 / hdg 193

(D) RW 32 length 12903 ft width 150 ft
---- / hdg 316

Location; KDOV
Day. 14 / Time. 13.56 Zulu
* Altimeter: 29.92
* Temperature: 24° c. 75.2°f.
* Wind from: 250° Speed 07 kn.
Dewpoint: 20° c.
Visibility: 10 Statute Miles.
Clouds: Scattered 1700 ft.
Clouds: Broken 2600 ft.
Clouds: Broken 3100 ft.

KDOV 141356Z AUTO 25007KT 10SM SCT017 BKN026 BKN031 24/20 A2992 RMK AO2 CIG 022V029 CIG 025 RWY01 SLP135 T02400201 $


Wind From 250°
Speed 07 kn.

 
 
jpsmedia.com for Web Design worldairports.se 2018   terms of use